createdAt,value
2023-03-13T08:01:01.445Z,99757.56
2023-03-13T08:43:46.994Z,99714.56
2023-03-13T08:45:19.224Z,99742.41
2023-03-13T08:46:51.413Z,99715.13
2023-03-13T08:48:24.612Z,99722.69
2023-03-13T08:49:56.813Z,99707.38
2023-03-13T08:51:36.892Z,99711.53
2023-03-13T08:53:08.939Z,99722.00
2023-03-13T08:54:41.200Z,99707.94
2023-03-13T08:56:18.402Z,99717.16
2023-03-13T08:57:52.576Z,99707.78
2023-03-13T08:59:24.608Z,99713.41
2023-03-13T09:03:22.673Z,99713.81
2023-03-13T09:05:26.537Z,99693.56
2023-03-13T09:07:52.883Z,99687.03
2023-03-13T09:10:15.177Z,99689.13
2023-03-13T09:12:31.753Z,99707.69
2023-03-13T09:16:21.666Z,99706.75
2023-03-13T09:17:53.807Z,99696.22
2023-03-13T09:19:26.066Z,99699.28
2023-03-13T09:21:04.116Z,99699.78
2023-03-13T09:22:53.556Z,99713.34
2023-03-13T09:24:30.678Z,99705.81
2023-03-13T09:26:02.983Z,99703.31
2023-03-13T09:27:37.928Z,99690.00
2023-03-13T09:29:12.864Z,99690.38
2023-03-13T09:33:31.389Z,99675.91
2023-03-13T09:35:10.844Z,99678.69
2023-03-13T09:40:04.561Z,99678.34
2023-03-13T09:42:20.126Z,99668.44
2023-03-13T09:44:19.509Z,99664.22
2023-03-13T09:48:52.722Z,99685.75
2023-03-13T09:50:30.929Z,99652.75
2023-03-13T09:52:13.412Z,99661.81
2023-03-13T09:54:25.616Z,99659.81
2023-03-13T10:13:23.695Z,99641.69
2023-03-13T10:16:01.661Z,99632.69
2023-03-13T10:40:47.522Z,99631.31
2023-03-13T11:23:11.268Z,99556.50
2023-03-13T11:25:17.931Z,99545.63
2023-03-13T11:27:16.244Z,99539.44
2023-03-13T11:29:23.051Z,99540.97
2023-03-13T11:31:23.102Z,99552.53
2023-03-13T11:35:46.524Z,99535.78
2023-03-13T11:37:29.146Z,99541.81
2023-03-13T11:39:13.239Z,99529.56
2023-03-13T11:41:01.477Z,99537.56
2023-03-13T11:43:24.443Z,99523.88
2023-03-13T11:45:17.702Z,99522.63
2023-03-13T11:47:10.919Z,99511.22
2023-03-13T11:48:52.527Z,99511.06
2023-03-13T11:50:31.100Z,99499.91
2023-03-13T11:52:36.364Z,99507.38
2023-03-13T11:54:35.342Z,99503.56
2023-03-13T11:56:16.497Z,99498.97
2023-03-13T11:58:13.956Z,99498.56
2023-03-13T12:00:14.603Z,99494.72
2023-03-13T12:02:00.856Z,99490.06
2023-03-13T12:03:38.051Z,99487.94
2023-03-13T12:05:19.462Z,99506.50
2023-03-13T12:07:43.777Z,99459.06
2023-03-13T12:09:29.304Z,99483.16
2023-03-13T12:11:05.387Z,99485.22
2023-03-13T12:12:39.885Z,99481.25
2023-03-13T12:15:11.019Z,99460.41
2023-03-13T12:17:00.656Z,99468.66
2023-03-13T12:19:38.071Z,99465.41
2023-03-13T12:22:03.769Z,99445.47
2023-03-13T12:58:15.101Z,99421.25
2023-03-13T13:19:31.103Z,99384.31
2023-03-13T13:22:17.633Z,99406.34
2023-03-13T13:31:43.524Z,99386.53
2023-03-13T13:33:55.939Z,99386.28
2023-03-13T13:35:56.446Z,99368.47
2023-03-13T13:37:48.874Z,99371.22
2023-03-13T13:40:01.746Z,99383.91
2023-03-13T13:47:34.065Z,99368.13
2023-03-13T13:56:26.731Z,99343.00
2023-03-13T13:58:29.447Z,99349.66
2023-03-13T14:01:29.971Z,99348.03
2023-03-13T14:10:45.594Z,99338.22
2023-03-13T14:13:00.761Z,99333.97
2023-03-13T14:17:24.299Z,99329.28
2023-03-13T14:19:00.327Z,99317.88
2023-03-13T14:22:51.159Z,99324.78
2023-03-13T15:12:29.500Z,99266.94
2023-03-13T15:16:49.910Z,99255.25
2023-03-13T15:19:00.167Z,99251.88
2023-03-13T15:32:32.997Z,99231.59
2023-03-13T15:34:16.230Z,99243.97
2023-03-13T15:35:51.190Z,99224.97
2023-03-13T15:37:31.937Z,99219.25
2023-03-13T15:39:21.351Z,99217.84
2023-03-13T15:40:59.579Z,99220.84
2023-03-13T15:42:51.379Z,99200.00
2023-03-13T15:44:54.308Z,99201.41
2023-03-13T15:46:32.967Z,99191.97
2023-03-13T15:48:21.760Z,99179.06
2023-03-13T15:49:56.045Z,99193.47
2023-03-13T15:51:35.717Z,99191.97
2023-03-13T15:53:37.835Z,99188.16
2023-03-13T15:55:43.363Z,99181.84
2023-03-13T15:57:27.892Z,99169.69
2023-03-13T16:00:09.336Z,99176.66
2023-03-13T16:01:47.344Z,99165.53
2023-03-13T16:08:35.887Z,99144.69
2023-03-13T16:10:29.238Z,99159.78
2023-03-13T16:12:30.418Z,99150.88
2023-03-13T16:14:16.204Z,99144.00
2023-03-13T16:14:29.309Z,99158.13
2023-03-13T16:15:54.255Z,99166.31
2023-03-13T16:17:55.822Z,99146.81
2023-03-13T16:19:57.610Z,99143.50
2023-03-13T16:21:32.046Z,99141.72
2023-03-13T16:23:04.141Z,99143.84
2023-03-13T16:24:36.209Z,99144.88
2023-03-13T16:26:15.643Z,99131.78
2023-03-13T16:27:50.705Z,99134.63
2023-03-13T16:29:51.333Z,99142.69
2023-03-13T16:32:05.890Z,99154.53
2023-03-13T16:33:42.653Z,99117.22
2023-03-13T16:40:35.894Z,99125.38
2023-03-13T16:44:56.393Z,99123.09
2023-03-13T16:47:02.780Z,99109.06
2023-03-13T16:48:43.055Z,99114.50
2023-03-13T16:50:32.747Z,99119.06
2023-03-13T16:52:07.322Z,99112.34
2023-03-13T16:53:46.557Z,99129.94
2023-03-13T16:55:30.295Z,99117.03
2023-03-13T16:57:15.593Z,99115.34
2023-03-13T17:01:41.828Z,99114.06
2023-03-13T17:02:35.186Z,99114.72
2023-03-13T17:03:15.796Z,99127.56
2023-03-13T17:11:57.506Z,99123.47
2023-03-13T17:14:17.756Z,99115.91
2023-03-13T17:16:25.047Z,99122.44
2023-03-13T17:18:23.140Z,99112.84
2023-03-13T17:20:05.912Z,99107.69
2023-03-13T17:24:01.232Z,99112.25
2023-03-13T17:25:38.915Z,99104.44
2023-03-13T17:34:02.646Z,99114.53
2023-03-13T18:05:42.457Z,99095.00
2023-03-13T18:12:38.647Z,99096.31
2023-03-13T18:14:36.397Z,99096.44
2023-03-13T18:17:05.000Z,99103.56
2023-03-13T18:19:37.759Z,99102.03
2023-03-13T18:21:32.055Z,99094.44
